createdAt,value
2022-08-03T07:11:31.800Z,25.30
2022-08-03T07:13:58.403Z,25.40
2022-08-03T07:16:25.029Z,25.50
2022-08-03T07:18:51.636Z,25.60
2022-08-03T07:21:18.239Z,25.60
2022-08-03T07:23:44.874Z,25.70
2022-08-03T07:26:13.132Z,25.80
2022-08-03T07:28:39.725Z,25.90
2022-08-03T07:31:06.474Z,26.00
2022-08-03T07:33:33.132Z,26.00
2022-08-03T07:35:59.714Z,26.20
2022-08-03T07:38:26.342Z,26.30
2022-08-03T07:40:53.984Z,26.30
2022-08-03T07:43:20.886Z,26.30
2022-08-03T07:45:47.556Z,26.20
2022-08-03T07:48:14.135Z,26.30
2022-08-03T07:50:40.823Z,26.40
2022-08-03T07:53:07.425Z,26.60
2022-08-03T07:55:35.110Z,26.70
2022-08-03T07:58:16.526Z,26.80
2022-08-03T08:00:45.984Z,26.80
2022-08-03T08:03:13.312Z,26.90
2022-08-03T08:05:39.982Z,26.90
2022-08-03T08:08:07.152Z,26.90
2022-08-03T08:10:34.126Z,27.00
2022-08-03T08:13:01.683Z,27.00
2022-08-03T08:15:28.476Z,27.00
2022-08-03T08:17:57.193Z,27.10
2022-08-03T08:20:31.508Z,27.20
2022-08-03T08:23:03.646Z,27.20
2022-08-03T08:25:46.601Z,27.20
2022-08-03T08:28:29.284Z,27.30
2022-08-03T08:30:59.092Z,27.40
2022-08-03T08:33:25.855Z,27.40
2022-08-03T08:35:53.489Z,27.40
2022-08-03T08:38:20.333Z,27.50
2022-08-03T08:40:49.000Z,27.50
2022-08-03T08:43:15.752Z,27.60
2022-08-03T08:45:42.928Z,27.80
2022-08-03T08:48:13.064Z,27.70
2022-08-03T08:50:39.727Z,27.60
2022-08-03T08:53:09.609Z,27.80
2022-08-03T08:55:59.207Z,27.90
2022-08-03T08:58:25.607Z,27.90
2022-08-03T09:00:52.403Z,27.80
2022-08-03T09:03:22.664Z,27.80
2022-08-03T09:06:01.123Z,27.90
2022-08-03T09:08:29.533Z,28.10
2022-08-03T09:10:56.180Z,28.30
2022-08-03T09:13:22.937Z,28.30
2022-08-03T09:16:08.544Z,28.40
2022-08-03T09:18:35.175Z,28.40
2022-08-03T09:21:37.151Z,28.30
2022-08-03T09:24:08.450Z,28.50
2022-08-03T09:26:38.174Z,28.70
2022-08-03T09:29:13.759Z,29.00
2022-08-03T09:31:46.770Z,29.20
2022-08-03T09:34:15.954Z,29.30
2022-08-03T09:36:46.285Z,29.30
2022-08-03T09:39:15.336Z,29.20
2022-08-03T09:41:48.845Z,29.30
2022-08-03T09:44:24.663Z,29.30
2022-08-03T09:46:56.947Z,29.20
2022-08-03T09:49:24.826Z,29.30
2022-08-03T09:52:31.452Z,29.50
2022-08-03T09:54:39.642Z,29.50
2022-08-03T09:57:06.603Z,29.50
2022-08-03T09:59:34.526Z,29.70
2022-08-03T10:02:01.894Z,29.90
2022-08-03T10:04:29.068Z,29.80
2022-08-03T10:07:05.276Z,29.90
2022-08-03T10:09:32.273Z,30.10
2022-08-03T10:12:09.759Z,30.20
2022-08-03T10:14:39.283Z,30.20
2022-08-03T10:17:07.204Z,30.10
2022-08-03T10:19:34.157Z,30.20
2022-08-03T10:22:12.082Z,30.40
2022-08-03T10:24:41.188Z,30.50
2022-08-03T10:27:08.215Z,30.80
2022-08-03T10:29:38.856Z,30.80
2022-08-03T10:32:15.829Z,30.80
2022-08-03T10:34:44.647Z,30.90
2022-08-03T10:37:14.593Z,30.80
2022-08-03T10:39:53.345Z,30.80
2022-08-03T10:42:27.149Z,30.90
2022-08-03T10:45:06.093Z,30.90
2022-08-03T10:47:34.175Z,30.90
2022-08-03T10:50:01.347Z,31.10
2022-08-03T10:52:33.840Z,31.00
2022-08-03T10:55:56.820Z,31.10
2022-08-03T10:58:37.498Z,31.00
2022-08-03T11:01:58.061Z,31.00
2022-08-03T11:04:26.724Z,30.70
2022-08-03T11:07:23.262Z,30.60
2022-08-03T11:09:55.591Z,30.80
2022-08-03T11:12:30.347Z,31.40
2022-08-03T11:15:02.364Z,31.70
2022-08-03T11:17:29.082Z,31.50
2022-08-03T11:19:57.596Z,31.50
2022-08-03T11:22:25.846Z,31.50
2022-08-03T11:24:56.335Z,31.60
2022-08-03T11:27:28.184Z,31.60
2022-08-03T11:30:03.293Z,31.60
2022-08-03T11:32:46.638Z,31.70
2022-08-03T11:35:18.479Z,31.90
2022-08-03T11:38:01.943Z,32.10
2022-08-03T11:40:54.497Z,32.20
2022-08-03T11:43:31.294Z,32.50
2022-08-03T11:46:28.383Z,32.80
2022-08-03T11:49:10.560Z,32.90
2022-08-03T11:51:40.540Z,32.80
2022-08-03T11:54:07.883Z,32.90
2022-08-03T11:56:49.958Z,33.00
2022-08-03T11:59:22.271Z,32.90
2022-08-03T12:01:49.803Z,32.70
2022-08-03T12:04:16.557Z,32.60
2022-08-03T12:06:59.220Z,32.50
2022-08-03T12:09:25.822Z,32.50
2022-08-03T12:12:00.673Z,32.70
2022-08-03T12:14:50.786Z,32.50
2022-08-03T12:17:16.125Z,32.60
2022-08-03T12:19:43.695Z,32.60
2022-08-03T12:22:10.442Z,32.90
2022-08-03T12:24:46.685Z,33.20
2022-08-03T12:27:23.255Z,33.10
2022-08-03T12:29:57.267Z,33.10
2022-08-03T12:32:27.200Z,33.20
2022-08-03T12:34:55.407Z,33.10
2022-08-03T12:37:23.536Z,32.60
2022-08-03T12:40:02.056Z,32.80
2022-08-03T12:42:37.124Z,33.00
2022-08-03T12:45:20.508Z,33.10
2022-08-03T12:47:59.038Z,32.90
2022-08-03T12:50:34.720Z,32.90
2022-08-03T12:53:09.345Z,32.80
2022-08-03T12:55:57.930Z,32.80
2022-08-03T12:58:36.329Z,32.80
2022-08-03T13:01:10.073Z,33.10
2022-08-03T13:03:42.772Z,33.10
2022-08-03T13:06:24.343Z,33.50
2022-08-03T13:09:02.769Z,33.80
2022-08-03T13:11:57.954Z,33.70
2022-08-03T13:14:19.627Z,33.40
2022-08-03T13:16:47.287Z,32.90
2022-08-03T13:19:15.561Z,32.70
2022-08-03T13:21:53.383Z,33.20
2022-08-03T13:24:30.575Z,33.40
2022-08-03T13:26:58.764Z,33.40
2022-08-03T13:29:25.397Z,33.40
2022-08-03T13:31:52.026Z,33.00
2022-08-03T13:34:22.976Z,33.00
2022-08-03T13:39:57.993Z,33.10
2022-08-03T13:42:30.790Z,33.00
2022-08-03T13:44:57.764Z,33.40
2022-08-03T13:47:24.528Z,33.10
2022-08-03T13:50:00.026Z,33.20
2022-08-03T13:52:32.319Z,33.70
2022-08-03T13:54:59.807Z,33.90
2022-08-03T13:58:03.026Z,33.60
2022-08-03T14:00:26.148Z,33.60
2022-08-03T14:03:01.804Z,33.70
2022-08-03T14:05:31.949Z,33.70
2022-08-03T14:08:04.799Z,33.40
2022-08-03T14:10:39.532Z,33.50
2022-08-03T14:13:06.698Z,33.80
2022-08-03T14:15:37.514Z,33.80
2022-08-03T14:18:05.898Z,33.80
2022-08-03T14:20:38.444Z,33.40
2022-08-03T14:23:14.243Z,33.40
2022-08-03T14:25:43.497Z,33.80
2022-08-03T14:28:17.899Z,33.90
2022-08-03T14:30:44.573Z,33.90
2022-08-03T14:33:11.269Z,34.20
2022-08-03T14:35:37.925Z,34.10
2022-08-03T14:38:04.511Z,34.10
2022-08-03T14:40:31.135Z,33.90
2022-08-03T14:42:57.738Z,34.00
2022-08-03T14:45:24.574Z,34.10
2022-08-03T14:50:28.953Z,34.00
2022-08-03T14:50:43.209Z,34.20
2022-08-03T14:53:10.958Z,34.20
2022-08-03T14:55:38.401Z,34.20
2022-08-03T14:58:20.019Z,34.00
2022-08-03T15:00:48.501Z,34.00
2022-08-03T15:03:17.006Z,33.80
2022-08-03T15:05:44.375Z,34.20
2022-08-03T15:08:11.021Z,34.50
2022-08-03T15:10:40.659Z,34.60
2022-08-03T15:13:12.768Z,34.90
2022-08-03T15:15:39.494Z,35.00
2022-08-03T15:18:06.183Z,35.20
2022-08-03T15:20:43.671Z,35.30
2022-08-03T15:23:11.617Z,35.20
2022-08-03T15:26:28.726Z,35.10
2022-08-03T15:28:25.016Z,35.00
2022-08-03T15:30:54.792Z,35.20
2022-08-03T15:33:21.499Z,35.30
2022-08-03T15:35:48.226Z,35.20
2022-08-03T15:38:14.998Z,35.20
2022-08-03T15:40:41.840Z,35.40
2022-08-03T15:43:08.634Z,35.40
2022-08-03T15:45:36.514Z,35.40
2022-08-03T15:48:04.834Z,35.00
2022-08-03T15:50:31.518Z,35.20
2022-08-03T15:52:58.147Z,35.40
2022-08-03T15:55:25.328Z,35.30
2022-08-03T15:59:04.173Z,34.80
2022-08-03T16:00:40.125Z,35.00
2022-08-03T16:03:06.791Z,35.30
2022-08-03T16:05:33.709Z,35.80
2022-08-03T16:08:03.668Z,35.90
2022-08-03T16:10:32.502Z,36.60
2022-08-03T16:13:00.015Z,37.80
2022-08-03T16:15:27.324Z,38.80
2022-08-03T16:17:54.003Z,40.00
2022-08-03T16:20:29.279Z,39.70
2022-08-03T16:23:00.704Z,40.40
2022-08-03T16:25:32.465Z,40.80
2022-08-03T16:28:08.216Z,40.60
2022-08-03T16:30:40.246Z,40.30
2022-08-03T16:33:06.848Z,39.20
2022-08-03T16:35:33.641Z,39.60
2022-08-03T16:38:00.531Z,39.80
2022-08-03T16:40:27.417Z,39.20
2022-08-03T16:42:54.101Z,38.50
2022-08-03T16:45:20.744Z,37.40
2022-08-03T16:47:47.340Z,37.00
2022-08-03T16:50:27.947Z,36.50
2022-08-03T16:52:54.996Z,36.30
2022-08-03T16:55:53.349Z,36.50
2022-08-03T16:58:08.451Z,36.50
2022-08-03T17:00:41.470Z,36.20
2022-08-03T17:03:18.787Z,35.90
2022-08-03T17:05:49.803Z,35.70
2022-08-03T17:08:26.107Z,35.70
2022-08-03T17:10:54.590Z,35.60
2022-08-03T17:13:22.912Z,35.60
2022-08-03T17:16:00.738Z,35.80
2022-08-03T17:18:32.341Z,35.70
2022-08-03T17:21:03.915Z,35.50
2022-08-03T17:23:52.273Z,34.90
2022-08-03T17:26:22.053Z,34.20
2022-08-03T17:28:58.276Z,34.20
2022-08-03T17:31:31.278Z,34.10
2022-08-03T17:34:04.502Z,33.90
2022-08-03T17:37:02.530Z,34.10
2022-08-03T17:39:41.846Z,34.20
2022-08-03T17:42:29.332Z,34.10
2022-08-03T17:44:57.509Z,33.90
2022-08-03T17:47:29.378Z,33.60
2022-08-03T17:50:24.701Z,33.40
2022-08-03T17:53:07.833Z,33.10
2022-08-03T17:55:57.042Z,33.00
2022-08-03T17:58:43.843Z,32.90
2022-08-03T18:01:58.185Z,33.00
2022-08-03T18:04:30.251Z,33.10
2022-08-03T18:06:59.399Z,32.90
2022-08-03T18:10:06.522Z,32.70
2022-08-03T18:12:25.732Z,32.50
2022-08-03T18:17:55.159Z,32.20
2022-08-03T18:20:32.712Z,32.00
2022-08-03T18:23:05.973Z,31.90
2022-08-03T18:25:42.652Z,31.80
2022-08-03T18:28:15.776Z,31.70
2022-08-03T18:30:54.049Z,31.50
2022-08-03T18:34:16.308Z,31.40
2022-08-03T18:36:11.436Z,31.30
2022-08-03T18:38:50.953Z,31.10
2022-08-03T18:41:31.829Z,31.00
2022-08-03T18:44:08.566Z,30.90
2022-08-03T18:47:25.919Z,30.80
2022-08-03T18:50:19.011Z,30.70
2022-08-03T18:52:54.405Z,30.60
2022-08-03T18:55:33.177Z,30.60
2022-08-03T18:58:19.666Z,30.50
2022-08-03T19:01:04.770Z,30.40
2022-08-03T19:03:49.395Z,30.40
2022-08-03T19:06:21.741Z,30.30
2022-08-03T19:09:02.870Z,30.20
2022-08-03T19:12:11.149Z,30.10
2022-08-03T19:14:29.526Z,29.90
2022-08-03T19:17:07.567Z,29.80
2022-08-03T19:22:27.104Z,29.50
2022-08-03T19:24:55.434Z,29.40
2022-08-03T19:27:26.766Z,29.30
2022-08-03T19:30:00.068Z,29.20
2022-08-03T19:32:30.052Z,29.20
2022-08-03T19:34:59.535Z,29.10
2022-08-03T19:37:40.131Z,29.10
2022-08-03T19:40:10.982Z,29.00
2022-08-03T19:42:44.169Z,28.90
2022-08-03T19:45:15.353Z,28.80
2022-08-03T19:47:55.904Z,28.80
2022-08-03T19:50:24.817Z,28.70
2022-08-03T19:52:52.844Z,28.70
2022-08-03T19:55:20.196Z,28.60
2022-08-03T19:57:49.182Z,28.60
2022-08-03T20:00:19.917Z,28.50
2022-08-03T20:02:52.926Z,28.50
2022-08-03T20:05:19.960Z,28.40
2022-08-03T20:07:47.605Z,28.40
2022-08-03T20:10:16.551Z,28.40
2022-08-03T20:12:45.222Z,28.30
2022-08-03T20:15:12.230Z,28.20
2022-08-03T20:17:54.555Z,28.20
2022-08-03T20:20:33.174Z,28.20
2022-08-03T20:23:04.052Z,28.10
2022-08-03T20:25:48.975Z,28.10
2022-08-03T20:28:50.276Z,28.00
2022-08-03T20:31:25.134Z,27.90
2022-08-03T20:34:03.366Z,27.90
2022-08-03T20:36:30.302Z,27.80
2022-08-03T20:38:58.095Z,27.80
2022-08-03T20:41:25.331Z,27.70
2022-08-03T20:43:51.971Z,27.70
2022-08-03T20:46:38.238Z,27.60
2022-08-03T20:49:07.235Z,27.60
2022-08-03T20:51:50.578Z,27.60
2022-08-03T20:54:28.702Z,27.50
2022-08-03T20:56:58.084Z,27.40
2022-08-03T20:59:33.611Z,27.40
2022-08-03T21:02:05.429Z,27.40
2022-08-03T21:04:32.086Z,27.30
2022-08-03T21:07:16.426Z,27.30
2022-08-03T21:09:59.295Z,27.20
2022-08-03T21:12:34.806Z,27.20
2022-08-03T21:13:01.993Z,29.60
2022-08-03T21:13:05.735Z,32.30
2022-08-03T21:15:09.639Z,27.20
2022-08-03T21:17:59.126Z,27.10
2022-08-03T21:20:31.263Z,27.10
2022-08-03T21:22:59.788Z,27.00
2022-08-03T21:25:31.417Z,27.00
2022-08-03T21:27:59.864Z,26.90
2022-08-03T21:30:28.493Z,26.90
2022-08-03T21:32:57.233Z,26.80
2022-08-03T21:35:24.731Z,26.70
2022-08-03T21:38:12.008Z,26.70
2022-08-03T21:40:40.495Z,26.70
2022-08-03T21:43:07.814Z,26.70
2022-08-03T21:45:44.371Z,26.70
2022-08-03T21:48:13.084Z,26.70
2022-08-03T21:50:42.426Z,26.60
2022-08-03T21:53:10.891Z,26.70
2022-08-03T21:55:47.154Z,26.70
2022-08-03T21:58:17.242Z,26.60
2022-08-03T22:00:44.789Z,26.60
